createdAt,value
2022-10-30T00:01:22.941Z,98169.06
2022-10-30T00:03:51.287Z,98174.56
2022-10-30T00:06:19.608Z,98168.16
2022-10-30T00:08:47.903Z,98165.81
2022-10-30T00:11:16.214Z,98174.31
2022-10-30T00:13:45.196Z,98171.13
2022-10-30T00:16:13.556Z,98169.06
2022-10-30T00:18:44.431Z,98172.78
2022-10-30T00:21:14.661Z,98168.50
2022-10-30T00:23:49.720Z,98166.88
2022-10-30T00:26:19.082Z,98170.72
2022-10-30T00:28:56.671Z,98161.03
2022-10-30T00:31:25.031Z,98160.78
2022-10-30T00:33:54.036Z,98151.44
2022-10-30T00:36:23.007Z,98148.03
2022-10-30T00:38:51.318Z,98143.56
2022-10-30T00:41:22.996Z,98143.78
2022-10-30T00:43:51.751Z,98142.75
2022-10-30T00:46:33.841Z,98136.81
2022-10-30T00:49:20.265Z,98132.06
2022-10-30T00:51:50.484Z,98131.06
2022-10-30T00:54:18.909Z,98127.84
2022-10-30T00:56:47.268Z,98129.31
2022-10-30T00:59:18.472Z,98130.38
2022-10-30T01:01:46.809Z,98122.41
2022-10-30T01:04:15.114Z,98128.31
2022-10-30T01:06:43.876Z,98134.19
2022-10-30T01:09:12.276Z,98129.81
2022-10-30T01:11:40.758Z,98120.50
2022-10-30T01:14:09.178Z,98119.53
2022-10-30T01:17:15.897Z,98116.09
2022-10-30T01:19:58.973Z,98122.47
2022-10-30T01:22:30.290Z,98121.16
2022-10-30T01:25:26.633Z,98116.84
2022-10-30T01:28:03.282Z,98112.38
2022-10-30T01:30:50.433Z,98114.47
2022-10-30T01:33:50.670Z,98111.16
2022-10-30T01:36:26.766Z,98107.09
2022-10-30T01:39:03.222Z,98113.59
2022-10-30T01:41:31.633Z,98107.34
2022-10-30T01:44:04.138Z,98104.94
2022-10-30T01:47:47.315Z,98107.06
2022-10-30T01:50:37.099Z,98109.06
2022-10-30T01:53:45.633Z,98102.22
2022-10-30T01:56:28.183Z,98104.66
2022-10-30T01:59:12.169Z,98101.66
2022-10-30T02:01:40.888Z,98104.88
2022-10-30T02:04:11.928Z,98101.84
2022-10-30T02:06:40.503Z,98097.56
2022-10-30T02:09:10.475Z,98097.59
2022-10-30T02:11:47.412Z,98097.09
2022-10-30T02:14:18.660Z,98087.63
2022-10-30T02:16:49.302Z,98092.50
2022-10-30T02:19:20.530Z,98090.38
2022-10-30T02:21:50.144Z,98096.81
2022-10-30T02:24:18.564Z,98104.00
2022-10-30T02:26:47.117Z,98105.41
2022-10-30T02:29:15.476Z,98108.84
2022-10-30T02:31:43.726Z,98097.53
2022-10-30T02:34:12.537Z,98099.38
2022-10-30T02:36:40.964Z,98102.31
2022-10-30T02:39:09.364Z,98105.31
2022-10-30T02:41:38.116Z,98106.56
2022-10-30T02:44:09.174Z,98095.84
2022-10-30T02:46:37.414Z,98091.34
2022-10-30T02:49:06.815Z,98100.03
2022-10-30T02:51:35.725Z,98100.09
2022-10-30T02:54:04.195Z,98103.84
2022-10-30T02:56:33.007Z,98103.25
2022-10-30T02:59:01.872Z,98100.28
2022-10-30T03:01:30.411Z,98098.31
2022-10-30T03:04:00.515Z,98100.97
2022-10-30T03:06:30.072Z,98100.25
2022-10-30T03:08:59.453Z,98105.00
2022-10-30T03:11:27.751Z,98105.56
2022-10-30T03:13:56.861Z,98101.84
2022-10-30T03:16:26.316Z,98103.78
2022-10-30T03:18:56.142Z,98106.16
2022-10-30T03:21:25.488Z,98105.63
2022-10-30T03:23:54.328Z,98102.19
2022-10-30T03:26:22.891Z,98099.66
2022-10-30T03:29:20.618Z,98097.69
2022-10-30T03:31:49.117Z,98099.91
2022-10-30T03:34:21.161Z,98101.44
2022-10-30T03:36:49.560Z,98089.47
2022-10-30T03:39:17.848Z,98086.69
2022-10-30T03:41:47.561Z,98095.66
2022-10-30T03:44:15.850Z,98093.00
2022-10-30T03:46:45.370Z,98091.06
2022-10-30T03:49:28.020Z,98090.16
2022-10-30T03:51:57.664Z,98087.63
2022-10-30T03:54:27.624Z,98095.41
2022-10-30T03:56:55.870Z,98096.75
2022-10-30T03:59:27.448Z,98095.66
2022-10-30T04:02:15.845Z,98085.28
2022-10-30T04:04:44.451Z,98090.91
2022-10-30T04:07:12.762Z,98095.41
2022-10-30T04:09:41.142Z,98086.84
2022-10-30T04:12:09.393Z,98095.59
2022-10-30T04:14:37.840Z,98099.84
2022-10-30T04:19:42.189Z,98085.38
2022-10-30T04:22:11.426Z,98084.44
2022-10-30T04:24:39.892Z,98080.69
2022-10-30T04:27:10.209Z,98083.75
2022-10-30T04:29:39.429Z,98091.22
2022-10-30T04:32:07.854Z,98079.94
2022-10-30T04:34:39.122Z,98087.41
2022-10-30T04:37:07.675Z,98082.72
2022-10-30T04:39:36.370Z,98085.56
2022-10-30T04:42:15.050Z,98095.41
2022-10-30T04:44:44.252Z,98085.84
2022-10-30T04:47:12.646Z,98086.31
2022-10-30T04:49:41.560Z,98078.91
2022-10-30T04:52:09.900Z,98093.44
2022-10-30T04:54:39.343Z,98088.38
2022-10-30T04:57:08.704Z,98081.69
2022-10-30T04:59:37.461Z,98081.72
2022-10-30T05:02:06.526Z,98078.59
2022-10-30T05:04:34.933Z,98084.53
2022-10-30T05:07:04.085Z,98078.56
2022-10-30T05:09:32.590Z,98074.78
2022-10-30T05:12:00.894Z,98089.50
2022-10-30T05:14:35.851Z,98072.19
2022-10-30T05:17:04.450Z,98081.84
2022-10-30T05:19:35.021Z,98074.59
2022-10-30T05:22:03.920Z,98075.50
2022-10-30T05:24:32.304Z,98080.84
2022-10-30T05:27:00.570Z,98067.78
2022-10-30T05:29:31.429Z,98073.03
2022-10-30T05:32:00.252Z,98079.59
2022-10-30T05:34:43.475Z,98068.53
2022-10-30T05:37:14.565Z,98070.09
2022-10-30T05:39:45.552Z,98072.03
2022-10-30T05:42:27.943Z,98074.81
2022-10-30T05:45:01.482Z,98077.91
2022-10-30T05:47:32.817Z,98077.16
2022-10-30T05:50:01.463Z,98079.31
2022-10-30T05:52:31.130Z,98076.22
2022-10-30T05:55:00.951Z,98073.72
2022-10-30T05:57:42.880Z,98075.22
2022-10-30T06:00:14.490Z,98075.38
2022-10-30T06:02:45.498Z,98062.72
2022-10-30T06:05:16.193Z,98056.97
2022-10-30T06:07:44.621Z,98054.94
2022-10-30T06:10:13.483Z,98046.69
2022-10-30T06:13:06.393Z,98053.72
2022-10-30T06:15:40.751Z,98055.19
2022-10-30T06:18:11.813Z,98066.78
2022-10-30T06:20:43.065Z,98062.03
2022-10-30T06:23:20.334Z,98061.63
2022-10-30T06:25:53.968Z,98065.41
2022-10-30T06:28:32.752Z,98060.00
2022-10-30T06:31:02.958Z,98060.53
2022-10-30T06:33:32.969Z,98061.88
2022-10-30T06:36:01.849Z,98066.59
2022-10-30T06:38:30.379Z,98064.31
2022-10-30T06:41:00.415Z,98060.94
2022-10-30T06:44:01.839Z,98068.19
2022-10-30T06:46:33.845Z,98070.66
2022-10-30T06:49:02.624Z,98070.16
2022-10-30T06:51:32.453Z,98070.31
2022-10-30T06:54:01.938Z,98054.72
2022-10-30T06:56:42.129Z,98058.94
2022-10-30T06:59:16.480Z,98058.84
2022-10-30T07:01:57.408Z,98058.41
2022-10-30T07:04:36.613Z,98060.53
2022-10-30T07:07:06.711Z,98058.97
2022-10-30T07:09:36.630Z,98052.09
2022-10-30T07:12:07.692Z,98054.94
2022-10-30T07:14:56.265Z,98053.75
2022-10-30T07:17:36.695Z,98043.59
2022-10-30T07:20:13.013Z,98039.38
2022-10-30T07:22:43.301Z,98036.25
2022-10-30T07:25:12.480Z,98038.97
2022-10-30T07:28:09.344Z,98024.31
2022-10-30T07:31:03.556Z,98011.94
2022-10-30T07:33:58.267Z,98013.34
2022-10-30T07:36:40.895Z,98010.19
2022-10-30T07:39:25.127Z,98014.47
2022-10-30T07:42:12.005Z,98016.75
2022-10-30T07:45:00.226Z,98019.88
2022-10-30T07:47:44.050Z,98016.22
2022-10-30T07:50:23.143Z,98001.63
2022-10-30T07:52:51.542Z,97994.97
2022-10-30T07:55:25.309Z,97996.47
2022-10-30T07:57:54.252Z,97991.19
2022-10-30T08:00:23.223Z,97985.63
2022-10-30T08:03:02.256Z,97988.22
2022-10-30T08:05:47.595Z,97984.38
2022-10-30T08:08:22.953Z,97975.75
2022-10-30T08:11:05.974Z,97983.56
2022-10-30T08:13:34.934Z,97975.47
2022-10-30T08:16:06.001Z,97983.81
2022-10-30T08:18:36.120Z,97973.78
2022-10-30T08:21:06.953Z,97971.50
2022-10-30T08:23:35.947Z,97967.66
2022-10-30T08:26:11.432Z,97966.38
2022-10-30T08:28:41.334Z,97961.78
2022-10-30T08:31:12.092Z,97957.97
2022-10-30T08:34:04.609Z,97954.44
2022-10-30T08:36:48.393Z,97953.84
2022-10-30T08:39:20.385Z,97958.97
2022-10-30T08:42:11.871Z,97954.66
2022-10-30T08:44:45.762Z,97951.94
2022-10-30T08:47:40.231Z,97956.09
2022-10-30T08:50:09.498Z,97954.84
2022-10-30T08:52:38.696Z,97957.22
2022-10-30T08:55:08.754Z,97957.69
2022-10-30T08:57:37.779Z,97950.34
2022-10-30T09:00:06.923Z,97949.50
2022-10-30T09:02:58.536Z,97932.97
2022-10-30T09:06:05.638Z,97935.13
2022-10-30T09:08:52.650Z,97937.63
2022-10-30T09:11:31.278Z,97950.84
2022-10-30T09:14:00.235Z,97930.91
2022-10-30T09:16:29.964Z,97926.16
2022-10-30T09:18:58.355Z,97928.78
2022-10-30T09:21:26.655Z,97920.66
2022-10-30T09:23:58.431Z,97914.91
2022-10-30T09:26:35.484Z,97918.41
2022-10-30T09:29:31.916Z,97910.63
2022-10-30T09:32:16.844Z,97904.19
2022-10-30T09:35:04.836Z,97902.66
2022-10-30T09:37:38.765Z,97896.63
2022-10-30T09:40:36.433Z,97889.84
2022-10-30T09:43:42.793Z,97885.63
2022-10-30T09:46:33.453Z,97888.81
2022-10-30T09:49:11.665Z,97887.22
2022-10-30T09:52:08.452Z,97879.56
2022-10-30T09:54:56.430Z,97878.44
2022-10-30T09:57:39.617Z,97875.63
2022-10-30T10:00:13.010Z,97868.69
2022-10-30T10:03:12.736Z,97860.69
2022-10-30T10:06:02.118Z,97849.34
2022-10-30T10:09:07.765Z,97840.25
2022-10-30T10:12:06.788Z,97842.47
2022-10-30T10:14:40.672Z,97839.31
2022-10-30T10:17:12.781Z,97836.47
2022-10-30T10:19:45.144Z,97832.09
2022-10-30T10:22:26.458Z,97821.00
2022-10-30T10:24:54.826Z,97828.44
2022-10-30T10:27:53.027Z,97818.06
2022-10-30T10:30:23.149Z,97807.59
2022-10-30T10:33:57.934Z,97804.84
2022-10-30T10:37:01.130Z,97807.69
2022-10-30T10:39:42.089Z,97801.50
2022-10-30T10:42:21.388Z,97799.19
2022-10-30T10:45:28.663Z,97794.91
2022-10-30T10:48:21.927Z,97784.84
2022-10-30T10:50:52.048Z,97790.06
2022-10-30T10:53:30.763Z,97769.78
2022-10-30T10:56:00.333Z,97783.06
2022-10-30T10:58:32.470Z,97779.25
2022-10-30T11:01:01.928Z,97767.63
2022-10-30T11:03:37.156Z,97767.81
2022-10-30T11:06:22.036Z,97759.94
2022-10-30T11:08:51.241Z,97751.34
2022-10-30T11:11:19.538Z,97753.97
2022-10-30T11:13:48.850Z,97751.78
2022-10-30T11:16:38.517Z,97747.56
2022-10-30T11:19:09.215Z,97746.97
2022-10-30T11:21:44.023Z,97735.47
2022-10-30T11:24:26.840Z,97735.56
2022-10-30T11:27:18.058Z,97733.63
2022-10-30T11:30:01.189Z,97729.63
2022-10-30T11:32:35.393Z,97721.41
2022-10-30T11:35:09.036Z,97715.19
2022-10-30T11:37:41.949Z,97716.25
2022-10-30T11:40:10.621Z,97718.56
2022-10-30T11:42:47.390Z,97711.00
2022-10-30T11:45:18.724Z,97711.44
2022-10-30T11:47:47.808Z,97704.41
2022-10-30T11:50:17.943Z,97696.75
2022-10-30T11:52:47.394Z,97703.53
2022-10-30T11:55:50.603Z,97702.69
2022-10-30T11:58:39.044Z,97693.34
2022-10-30T12:01:08.453Z,97690.34
2022-10-30T12:03:41.677Z,97693.06
2022-10-30T12:06:20.984Z,97690.31
2022-10-30T12:09:22.220Z,97685.81
2022-10-30T12:11:50.573Z,97685.59
2022-10-30T12:14:23.932Z,97680.59
2022-10-30T12:16:57.358Z,97675.06
2022-10-30T12:19:34.213Z,97668.13
2022-10-30T12:22:06.309Z,97674.59
2022-10-30T12:24:39.020Z,97661.84
2022-10-30T12:27:16.856Z,97669.91
2022-10-30T12:30:10.139Z,97660.66
2022-10-30T12:32:46.585Z,97656.75
2022-10-30T12:35:19.334Z,97659.81
2022-10-30T12:37:55.597Z,97664.34
2022-10-30T12:40:27.145Z,97657.19
2022-10-30T12:43:21.974Z,97657.75
2022-10-30T12:45:51.422Z,97655.69
2022-10-30T12:48:41.987Z,97655.31
2022-10-30T12:51:23.910Z,97654.28
2022-10-30T12:54:00.519Z,97655.59
2022-10-30T12:56:34.189Z,97647.56
2022-10-30T12:59:23.821Z,97645.44
2022-10-30T13:01:54.616Z,97642.03
2022-10-30T13:04:25.061Z,97637.28
2022-10-30T13:07:18.932Z,97645.00
2022-10-30T13:09:53.763Z,97641.66
2022-10-30T13:12:24.052Z,97637.94
2022-10-30T13:15:07.056Z,97635.16
2022-10-30T13:17:35.349Z,97636.81
2022-10-30T13:20:11.455Z,97630.13
2022-10-30T13:22:58.066Z,97632.44
2022-10-30T13:26:03.384Z,97639.09
2022-10-30T13:29:03.917Z,97637.13
2022-10-30T13:32:04.085Z,97642.53
2022-10-30T13:35:18.290Z,97639.19
2022-10-30T13:38:09.924Z,97642.72
2022-10-30T13:40:52.925Z,97643.81
2022-10-30T13:43:41.704Z,97643.47
2022-10-30T13:47:08.333Z,97650.44
2022-10-30T13:50:02.714Z,97644.00
2022-10-30T13:52:32.505Z,97646.34
2022-10-30T13:55:03.759Z,97647.84
2022-10-30T13:57:43.231Z,97653.84
2022-10-30T14:00:45.458Z,97648.28
2022-10-30T14:03:38.938Z,97651.56
2022-10-30T14:06:33.940Z,97650.00
2022-10-30T14:09:19.894Z,97652.72
2022-10-30T14:11:48.316Z,97657.81
2022-10-30T14:14:16.604Z,97645.81
2022-10-30T14:16:46.196Z,97652.72
2022-10-30T14:19:18.284Z,97663.44
2022-10-30T14:21:53.329Z,97651.94
2022-10-30T14:24:34.890Z,97650.41
2022-10-30T14:27:06.339Z,97655.28
2022-10-30T14:29:35.350Z,97651.97
2022-10-30T14:32:23.537Z,97664.97
2022-10-30T14:34:52.172Z,97657.59
2022-10-30T14:37:23.522Z,97655.00
2022-10-30T14:39:53.494Z,97657.38
2022-10-30T14:42:24.652Z,97659.44
2022-10-30T14:45:18.500Z,97653.81
2022-10-30T14:48:14.314Z,97649.84
2022-10-30T14:50:49.840Z,97660.63
2022-10-30T14:53:40.563Z,97659.66
2022-10-30T14:59:10.482Z,97661.25
2022-10-30T15:01:57.451Z,97660.78
2022-10-30T15:04:35.994Z,97659.06
2022-10-30T15:07:38.307Z,97655.09
2022-10-30T15:10:29.487Z,97657.91
2022-10-30T15:13:22.056Z,97658.75
2022-10-30T15:16:08.861Z,97658.16
2022-10-30T15:18:37.934Z,97663.41
2022-10-30T15:21:07.729Z,97662.28
2022-10-30T15:23:39.027Z,97668.47
2022-10-30T15:26:10.124Z,97662.03
2022-10-30T15:28:38.670Z,97664.66
2022-10-30T15:31:24.444Z,97653.31
2022-10-30T15:33:54.717Z,97657.47
2022-10-30T15:36:26.453Z,97660.50
2022-10-30T15:39:03.630Z,97663.13
2022-10-30T15:41:37.658Z,97664.41
2022-10-30T15:44:06.124Z,97666.59
2022-10-30T15:46:34.584Z,97659.56
2022-10-30T15:49:04.367Z,97662.63
2022-10-30T15:51:35.409Z,97665.91
2022-10-30T15:54:09.683Z,97667.69
2022-10-30T15:57:08.353Z,97665.19
2022-10-30T15:59:34.293Z,97671.19
2022-10-30T16:02:04.525Z,97668.25
2022-10-30T16:04:40.598Z,97675.59
2022-10-30T16:07:36.733Z,97677.88
2022-10-30T16:10:06.666Z,97671.66
2022-10-30T16:12:37.090Z,97686.00
2022-10-30T16:15:32.156Z,97691.53
2022-10-30T16:18:23.435Z,97686.84
2022-10-30T16:21:05.858Z,97679.47
2022-10-30T16:24:07.272Z,97679.00
2022-10-30T16:26:37.412Z,97691.56
2022-10-30T16:29:33.754Z,97681.16
2022-10-30T16:32:02.290Z,97682.19
2022-10-30T16:34:38.683Z,97690.56
2022-10-30T16:37:20.204Z,97696.28
2022-10-30T16:39:50.464Z,97704.13
2022-10-30T16:42:22.563Z,97709.88
2022-10-30T16:44:51.111Z,97707.81
2022-10-30T16:47:20.065Z,97710.16
2022-10-30T16:49:58.618Z,97705.94
2022-10-30T16:52:35.878Z,97708.56
2022-10-30T16:55:06.643Z,97714.59
2022-10-30T16:57:46.857Z,97711.13
2022-10-30T17:00:27.242Z,97710.59
2022-10-30T17:02:57.854Z,97718.88
2022-10-30T17:05:30.049Z,97709.50
2022-10-30T17:08:00.723Z,97707.84
2022-10-30T17:10:44.845Z,97705.63
2022-10-30T17:13:34.923Z,97719.28
2022-10-30T17:16:30.222Z,97708.88
2022-10-30T17:19:00.800Z,97716.69
2022-10-30T17:21:38.796Z,97708.88
2022-10-30T17:24:17.600Z,97708.53
2022-10-30T17:26:46.075Z,97712.47
2022-10-30T17:29:43.465Z,97704.72
2022-10-30T17:32:23.905Z,97703.91
2022-10-30T17:37:46.483Z,97712.19
2022-10-30T17:40:15.472Z,97715.56
2022-10-30T17:42:44.854Z,97708.47
2022-10-30T17:45:14.696Z,97707.72
2022-10-30T17:47:43.326Z,97714.34
2022-10-30T17:50:15.116Z,97722.63
2022-10-30T17:52:45.239Z,97725.56
2022-10-30T17:55:24.832Z,97727.09
2022-10-30T17:57:54.437Z,97725.41
2022-10-30T18:00:23.865Z,97726.88
2022-10-30T18:02:52.341Z,97736.84
2022-10-30T18:05:22.813Z,97735.69
2022-10-30T18:07:51.345Z,97735.69
2022-10-30T18:10:21.284Z,97736.88
2022-10-30T18:12:53.823Z,97729.69
2022-10-30T18:15:41.146Z,97745.25
2022-10-30T18:18:10.502Z,97740.63
2022-10-30T18:20:39.122Z,97738.31
2022-10-30T18:23:46.797Z,97740.28
2022-10-30T18:26:19.719Z,97738.66
2022-10-30T18:28:49.276Z,97735.16
2022-10-30T18:31:19.897Z,97735.78
2022-10-30T18:33:50.077Z,97742.59
2022-10-30T18:36:23.115Z,97729.91
2022-10-30T18:38:53.070Z,97726.25
2022-10-30T18:41:44.794Z,97729.97
2022-10-30T18:44:17.182Z,97737.41
2022-10-30T18:46:48.395Z,97731.00
2022-10-30T18:49:23.732Z,97733.78
2022-10-30T18:52:01.672Z,97737.56
2022-10-30T18:54:35.375Z,97742.44
2022-10-30T18:57:03.948Z,97738.88
2022-10-30T18:59:33.721Z,97744.28
2022-10-30T19:02:03.462Z,97740.81
2022-10-30T19:04:32.726Z,97739.19
2022-10-30T19:07:05.950Z,97743.22
2022-10-30T19:09:34.544Z,97748.16
2022-10-30T19:12:02.998Z,97753.41
2022-10-30T19:14:36.004Z,97765.06
2022-10-30T19:17:04.997Z,97766.22
2022-10-30T19:19:35.481Z,97767.56
2022-10-30T19:22:08.396Z,97761.88
2022-10-30T19:24:38.506Z,97768.09
2022-10-30T19:27:07.997Z,97768.69
2022-10-30T19:29:36.460Z,97777.25
2022-10-30T19:32:05.637Z,97772.47
2022-10-30T19:34:34.848Z,97765.31
2022-10-30T19:37:04.170Z,97772.41
2022-10-30T19:39:34.004Z,97768.53
2022-10-30T19:42:03.472Z,97777.47
2022-10-30T19:44:32.083Z,97778.09
2022-10-30T19:47:01.158Z,97788.53
2022-10-30T19:49:29.710Z,97786.22
2022-10-30T19:51:59.476Z,97791.16
2022-10-30T19:54:27.917Z,97784.28
2022-10-30T19:56:56.493Z,97792.19
2022-10-30T19:59:26.824Z,97797.81
2022-10-30T20:01:56.117Z,97789.00
2022-10-30T20:04:25.934Z,97796.00
2022-10-30T20:06:56.234Z,97798.94
2022-10-30T20:09:30.385Z,97790.56
2022-10-30T20:11:58.912Z,97802.22
2022-10-30T20:14:28.138Z,97806.56
2022-10-30T20:16:56.587Z,97802.09
2022-10-30T20:19:28.353Z,97805.84
2022-10-30T20:21:57.397Z,97801.06
2022-10-30T20:24:26.455Z,97801.91
2022-10-30T20:26:57.126Z,97792.66
2022-10-30T20:29:25.901Z,97792.78
2022-10-30T20:31:55.666Z,97796.84
2022-10-30T20:34:25.566Z,97792.88
2022-10-30T20:36:54.189Z,97794.22
2022-10-30T20:39:22.663Z,97785.09
2022-10-30T20:41:51.583Z,97793.00
2022-10-30T20:44:19.855Z,97781.06
2022-10-30T20:46:48.733Z,97786.78
2022-10-30T20:49:18.605Z,97774.94
2022-10-30T20:51:47.913Z,97779.53
2022-10-30T20:54:17.594Z,97772.13
2022-10-30T20:56:45.981Z,97778.28
2022-10-30T20:59:15.106Z,97769.94
2022-10-30T21:01:43.524Z,97778.88
2022-10-30T21:04:12.020Z,97765.22
2022-10-30T21:06:40.502Z,97769.53
2022-10-30T21:09:09.227Z,97776.19
2022-10-30T21:11:37.543Z,97788.44
2022-10-30T21:14:06.195Z,97789.75
2022-10-30T21:16:34.483Z,97785.84
2022-10-30T21:19:02.838Z,97789.81
2022-10-30T21:21:31.200Z,97788.88
2022-10-30T21:24:00.211Z,97789.66
2022-10-30T21:26:28.493Z,97794.13
2022-10-30T21:28:57.104Z,97790.31
2022-10-30T21:31:28.532Z,97792.47
2022-10-30T21:33:56.968Z,97803.69
2022-10-30T21:36:26.629Z,97809.31
2022-10-30T21:38:56.271Z,97808.06
2022-10-30T21:41:27.554Z,97813.38
2022-10-30T21:43:56.721Z,97820.16
2022-10-30T21:46:27.406Z,97821.72
2022-10-30T21:48:55.921Z,97821.00
2022-10-30T21:51:26.430Z,97825.16
2022-10-30T21:53:55.295Z,97824.09
2022-10-30T21:56:28.009Z,97833.34
2022-10-30T21:58:59.728Z,97820.69
2022-10-30T22:01:32.321Z,97827.13
2022-10-30T22:04:01.475Z,97832.19
2022-10-30T22:06:30.551Z,97827.91
2022-10-30T22:08:59.094Z,97826.75
2022-10-30T22:11:28.366Z,97831.00
2022-10-30T22:14:02.097Z,97840.47
2022-10-30T22:16:32.272Z,97830.13
2022-10-30T22:19:00.690Z,97830.56
2022-10-30T22:21:29.953Z,97828.63
2022-10-30T22:24:01.367Z,97838.94
2022-10-30T22:26:29.840Z,97827.78
2022-10-30T22:28:59.547Z,97818.50
2022-10-30T22:31:29.111Z,97820.00
2022-10-30T22:33:59.440Z,97820.75
2022-10-30T22:36:29.338Z,97826.69
2022-10-30T22:39:03.068Z,97821.06
2022-10-30T22:41:36.426Z,97825.50
2022-10-30T22:44:08.699Z,97823.13
2022-10-30T22:46:37.442Z,97815.81
2022-10-30T22:49:06.032Z,97810.38
2022-10-30T22:51:35.312Z,97813.03
2022-10-30T22:54:06.670Z,97822.16
2022-10-30T22:56:36.068Z,97817.81
2022-10-30T22:59:09.019Z,97821.81
2022-10-30T23:01:37.573Z,97826.00
2022-10-30T23:04:06.363Z,97823.34
2022-10-30T23:06:35.086Z,97821.47
2022-10-30T23:09:07.395Z,97817.50
2022-10-30T23:11:36.234Z,97826.53
2022-10-30T23:14:04.983Z,97820.72
2022-10-30T23:16:34.477Z,97823.31
2022-10-30T23:19:02.847Z,97817.63
2022-10-30T23:21:31.605Z,97832.78
2022-10-30T23:24:00.433Z,97820.66
2022-10-30T23:26:30.661Z,97817.81
2022-10-30T23:28:59.674Z,97820.78
2022-10-30T23:31:33.814Z,97813.91
2022-10-30T23:34:05.434Z,97810.72
2022-10-30T23:36:35.060Z,97803.59
2022-10-30T23:39:05.185Z,97806.84
2022-10-30T23:41:34.660Z,97799.59
2022-10-30T23:44:05.468Z,97805.81
2022-10-30T23:46:34.642Z,97811.72
2022-10-30T23:49:04.606Z,97805.34
2022-10-30T23:51:32.921Z,97801.28
2022-10-30T23:54:01.114Z,97805.22
2022-10-30T23:56:29.797Z,97813.94
2022-10-30T23:58:58.203Z,97810.78
